Time;durP1;ratioP1;P1;durP2;ratioP2;P2;SDS_P1;SDS_P2;PMS_P1;PMS_P2;Temp;Humidity;BMP_temperature;BMP_pressure;BME280_temperature;BME280_humidity;BME280_pressure;Samples;Min_cycle;Max_cycle;Signal;HPM_P1;HPM_P2
2022/10/05 00:01:21;;;;;;;6.57;3.28;;;;;;;21.54;44.54;101590.03;5035063;28;20029;-64
2022/10/05 00:03:47;;;;;;;6.22;3.08;;;;;;;21.54;44.50;101590.03;5036162;28;20076;-64
2022/10/05 00:06:13;;;;;;;6.57;3.38;;;;;;;21.50;43.89;101577.78;5036207;28;20068;-64
2022/10/05 00:08:38;;;;;;;6.30;3.15;;;;;;;21.54;44.01;101579.97;5036378;28;20037;-64
2022/10/05 00:11:08;;;;;;;3.67;2.80;;;;;;;21.54;44.89;101562.75;5036151;28;20040;-64
2022/10/05 00:13:33;;;;;;;4.10;2.50;;;;;;;21.53;44.27;101558.31;5036049;28;20377;-64
2022/10/05 00:16:19;;;;;;;4.90;3.38;;;;;;;21.52;44.58;101570.28;5034821;28;20029;-64
2022/10/05 00:18:48;;;;;;;10.00;3.55;;;;;;;21.42;44.79;101555.00;5034735;28;20110;-64
2022/10/05 00:21:22;;;;;;;9.02;3.67;;;;;;;21.44;45.19;101568.44;5035915;28;20386;-64
2022/10/05 00:23:47;;;;;;;5.25;3.97;;;;;;;21.38;45.14;101570.00;5034670;28;20090;-64
2022/10/05 00:26:18;;;;;;;6.78;3.05;;;;;;;21.40;45.04;101573.44;5034657;28;20506;-63
2022/10/05 00:28:44;;;;;;;5.95;3.40;;;;;;;21.36;44.39;101566.63;5035754;28;20033;-64
2022/10/05 00:31:18;;;;;;;7.50;3.97;;;;;;;21.39;44.97;101566.28;5034808;28;20493;-63
2022/10/05 00:33:44;;;;;;;9.20;3.65;;;;;;;21.43;45.26;101577.66;5034551;28;20025;-64
2022/10/05 00:36:10;;;;;;;10.20;3.80;;;;;;;21.44;44.92;101576.63;5035623;28;20368;-64
2022/10/05 00:38:35;;;;;;;7.03;2.97;;;;;;;21.43;44.94;101578.53;5035579;28;20076;-64
2022/10/05 00:41:52;;;;;;;6.60;3.72;;;;;;;21.44;44.52;101585.66;5034653;28;20022;-63
2022/10/05 00:44:41;;;;;;;8.52;3.70;;;;;;;21.43;45.29;101591.28;5017672;28;20055;-64
2022/10/05 00:47:15;;;;;;;6.70;3.25;;;;;;;21.44;44.89;101582.91;5035438;28;20494;-64
2022/10/05 00:50:13;;;;;;;6.38;2.95;;;;;;;21.41;45.50;101577.81;5035355;28;20394;-64
2022/10/05 00:52:53;;;;;;;7.85;3.33;;;;;;;21.43;44.64;101586.69;5035158;28;20049;-64
2022/10/05 00:55:24;;;;;;;3.95;2.95;;;;;;;21.42;45.36;101586.84;5035211;28;20033;-64
2022/10/05 00:58:11;;;;;;;8.60;3.35;;;;;;;21.39;45.02;101579.03;5035227;28;20040;-64
2022/10/05 01:00:45;;;;;;;6.85;3.08;;;;;;;21.33;44.71;101566.97;5035214;28;20029;-64
2022/10/05 01:03:28;;;;;;;6.90;3.80;;;;;;;21.33;45.14;101566.97;5033755;28;20064;-64
2022/10/05 01:06:32;;;;;;;7.15;3.70;;;;;;;21.30;45.62;101563.78;5033849;28;20021;-64
2022/10/05 01:09:18;;;;;;;6.85;3.20;;;;;;;21.24;45.73;101557.19;5012434;28;20045;-64
2022/10/05 01:11:51;;;;;;;6.88;3.85;;;;;;;21.21;45.83;101557.56;5033795;28;20022;-64
2022/10/05 01:14:26;;;;;;;5.65;3.72;;;;;;;21.20;45.71;101560.44;5033779;28;20018;-64
2022/10/05 01:16:58;;;;;;;7.80;3.58;;;;;;;21.19;45.00;101562.31;5033630;28;20029;-64
2022/10/05 01:19:59;;;;;;;9.77;4.47;;;;;;;21.18;45.72;101555.19;5033750;28;20124;-64
2022/10/05 01:22:48;;;;;;;8.55;4.03;;;;;;;21.16;45.77;101556.41;5023047;28;20049;-64
2022/10/05 01:25:20;;;;;;;8.20;3.50;;;;;;;21.15;45.30;101561.00;5033592;28;20034;-64
2022/10/05 01:28:03;;;;;;;6.78;4.10;;;;;;;21.17;45.62;101555.34;5034727;28;20112;-64
2022/10/05 01:30:36;;;;;;;8.80;3.47;;;;;;;21.18;45.29;101557.06;5034689;28;20104;-64
2022/10/05 01:33:24;;;;;;;6.60;3.22;;;;;;;21.17;45.56;101556.19;5034612;28;20017;-64
2022/10/05 01:36:00;;;;;;;10.38;3.83;;;;;;;21.16;46.03;101557.22;5033646;28;20060;-64
2022/10/05 01:38:54;;;;;;;5.90;3.75;;;;;;;21.17;46.03;101556.19;5034581;28;20021;-64
2022/10/05 01:41:32;;;;;;;5.32;3.13;;;;;;;21.19;45.97;101553.31;5031487;28;20463;-63
2022/10/05 01:44:19;;;;;;;5.70;3.60;;;;;;;21.16;45.80;101549.03;5034116;28;20124;-64
2022/10/05 01:47:20;;;;;;;7.70;3.33;;;;;;;21.19;45.24;101537.78;5034303;28;20092;-63
2022/10/05 01:50:05;;;;;;;7.03;4.00;;;;;;;21.18;45.52;101541.56;4992814;28;20026;-64
2022/10/05 01:52:38;;;;;;;7.53;3.05;;;;;;;21.18;46.34;101541.56;5030488;28;20506;-64
2022/10/05 01:55:24;;;;;;;10.30;4.13;;;;;;;21.18;45.44;101541.56;5032995;28;20505;-64
2022/10/05 01:58:20;;;;;;;6.90;3.40;;;;;;;21.19;45.58;101532.34;5032920;28;20114;-64
2022/10/05 02:00:54;;;;;;;11.00;4.10;;;;;;;21.19;46.06;101526.88;5034100;28;20070;-64
2022/10/05 02:03:24;;;;;;;5.88;3.20;;;;;;;21.22;45.71;101534.69;5033736;28;20064;-64
2022/10/05 02:05:52;;;;;;;12.65;4.13;;;;;;;21.25;45.76;101525.31;5032308;28;20116;-64
2022/10/05 02:08:25;;;;;;;8.10;3.45;;;;;;;21.28;46.62;101514.03;5033933;28;20029;-64
2022/10/05 02:10:57;;;;;;;8.02;3.90;;;;;;;21.25;45.92;101508.97;5032700;28;20029;-64
2022/10/05 02:13:42;;;;;;;7.25;3.88;;;;;;;21.23;46.38;101508.31;5016183;28;20017;-64
2022/10/05 02:16:41;;;;;;;6.60;4.78;;;;;;;21.22;45.92;101510.19;5034115;28;20025;-64
2022/10/05 02:19:28;;;;;;;9.85;3.83;;;;;;;21.25;45.50;101506.22;5027217;28;20041;-64
2022/10/05 02:22:07;;;;;;;13.10;3.95;;;;;;;21.22;46.49;101503.88;5033757;28;20037;-64
2022/10/05 02:24:42;;;;;;;5.35;2.88;;;;;;;21.25;46.60;101509.81;5033571;28;20021;-64
2022/10/05 02:27:09;;;;;;;4.90;3.05;;;;;;;21.24;45.77;101502.69;5033680;28;20497;-64
2022/10/05 02:29:38;;;;;;;5.07;3.13;;;;;;;21.30;45.81;101512.84;5032406;28;20548;-64
2022/10/05 02:32:10;;;;;;;10.20;4.28;;;;;;;21.33;46.04;101509.75;5032396;28;20022;-63
2022/10/05 02:34:38;;;;;;;4.78;3.10;;;;;;;21.34;46.11;101500.56;5032303;28;20382;-64
2022/10/05 02:37:36;;;;;;;7.93;3.70;;;;;;;21.33;46.02;101489.81;5032287;28;20037;-64
2022/10/05 02:40:24;;;;;;;5.15;3.05;;;;;;;21.32;45.69;101494.44;5033015;28;20044;-64
2022/10/05 02:43:04;;;;;;;5.70;3.17;;;;;;;21.31;46.13;101492.72;5031994;28;20045;-64
2022/10/05 02:45:50;;;;;;;6.22;3.00;;;;;;;21.30;46.00;101491.03;5033346;28;20036;-64
2022/10/05 02:48:28;;;;;;;6.40;3.30;;;;;;;21.29;46.32;101489.34;5033377;28;20029;-64
2022/10/05 02:51:27;;;;;;;7.57;3.55;;;;;;;21.28;45.91;101481.34;5033306;28;20057;-64
2022/10/05 02:54:12;;;;;;;5.18;2.92;;;;;;;21.27;46.71;101480.50;5032039;28;20029;-64
2022/10/05 02:56:56;;;;;;;4.88;3.05;;;;;;;21.25;45.93;101482.56;5033249;28;20049;-64
2022/10/05 02:59:30;;;;;;;8.90;3.47;;;;;;;21.25;46.49;101477.09;5033292;28;20052;-64
2022/10/05 03:02:06;;;;;;;4.53;3.13;;;;;;;21.22;46.50;101469.28;5031865;28;20036;-64
2022/10/05 03:04:41;;;;;;;7.55;3.50;;;;;;;21.22;46.66;101474.75;5033146;28;20029;-64
2022/10/05 03:07:12;;;;;;;9.77;3.42;;;;;;;21.22;46.13;101466.56;5032090;28;20021;-64
2022/10/05 03:09:47;;;;;;;7.25;4.13;;;;;;;21.22;46.33;101465.72;5031977;28;20025;-64
2022/10/05 03:12:32;;;;;;;9.80;3.72;;;;;;;21.23;46.14;101465.56;5015372;28;20029;-64
2022/10/05 03:15:09;;;;;;;6.72;3.78;;;;;;;21.20;46.70;101452.28;5031927;28;20014;-64
2022/10/05 03:17:50;;;;;;;6.10;3.90;;;;;;;21.18;46.82;101448.91;5037134;28;20057;-64
2022/10/05 03:20:39;;;;;;;7.63;4.28;;;;;;;21.19;46.37;101445.13;5035849;28;20029;-64
2022/10/05 03:23:10;;;;;;;5.68;3.42;;;;;;;21.21;46.58;101447.69;5037021;28;20374;-64
2022/10/05 03:25:53;;;;;;;9.07;3.83;;;;;;;21.20;46.49;101435.94;5037018;28;20029;-64
2022/10/05 03:28:40;;;;;;;5.03;3.70;;;;;;;21.18;46.24;101440.72;5036908;28;20497;-64
2022/10/05 03:31:11;;;;;;;6.03;3.47;;;;;;;21.17;46.27;101439.03;5035780;28;20112;-64
2022/10/05 03:33:47;;;;;;;6.90;3.55;;;;;;;21.17;46.15;101433.56;5036854;28;20110;-64
2022/10/05 03:36:17;;;;;;;9.93;4.05;;;;;;;21.18;46.96;101438.00;5035580;28;20026;-64
2022/10/05 03:39:22;;;;;;;6.10;3.58;;;;;;;21.16;46.94;101434.59;5035507;28;20048;-64
2022/10/05 03:41:58;;;;;;;8.60;3.25;;;;;;;21.17;46.48;101428.13;4995178;28;20447;-64
2022/10/05 03:44:32;;;;;;;7.55;4.15;;;;;;;21.16;46.72;101431.88;4995086;28;20415;-63
2022/10/05 03:47:06;;;;;;;6.95;4.03;;;;;;;21.16;47.06;101433.78;4995155;28;20173;-64
2022/10/05 03:49:32;;;;;;;5.18;2.88;;;;;;;21.16;47.16;101434.59;4995140;28;20045;-64
2022/10/05 03:52:04;;;;;;;5.95;3.45;;;;;;;21.13;46.75;101431.41;4995052;28;20030;-63
2022/10/05 03:54:34;;;;;;;;;;;;;;;21.15;46.31;101430.19;4995268;28;20034;-64
2022/10/05 03:57:20;;;;;;;4.82;3.30;;;;;;;21.15;46.40;101432.06;4978734;28;19914;-64
2022/10/05 04:00:05;;;;;;;7.05;3.42;;;;;;;21.11;46.26;101420.69;4994818;28;20495;-64
2022/10/05 04:02:38;;;;;;;8.75;3.25;;;;;;;21.10;46.71;101427.19;4994811;28;20129;-64
2022/10/05 04:05:09;;;;;;;6.90;3.60;;;;;;;21.08;47.13;101421.03;4994846;28;20080;-64
2022/10/05 04:07:34;;;;;;;6.40;3.03;;;;;;;21.05;46.85;101424.09;4994945;28;20045;-64
2022/10/05 04:10:03;;;;;;;7.65;3.30;;;;;;;21.06;46.11;101427.66;4994766;28;20407;-64
2022/10/05 04:12:58;;;;;;;7.50;3.13;;;;;;;21.05;46.31;101426.81;4994790;28;20071;-64
2022/10/05 04:15:28;;;;;;;12.35;3.15;;;;;;;21.06;46.71;101428.53;5006928;28;20379;-64
2022/10/05 04:17:59;;;;;;;4.47;3.15;;;;;;;21.08;47.31;101428.41;5034822;28;20021;-64
2022/10/05 04:20:37;;;;;;;5.88;3.30;;;;;;;21.09;46.10;101433.66;5034806;28;20083;-64
2022/10/05 04:23:09;;;;;;;7.40;3.58;;;;;;;21.10;46.56;101424.47;5034670;28;20021;-64
2022/10/05 04:25:45;;;;;;;4.53;3.13;;;;;;;21.13;46.29;101429.53;5035852;28;20542;-64
2022/10/05 04:28:16;;;;;;;6.32;2.72;;;;;;;21.12;46.88;101422.38;5017203;28;20482;-64
2022/10/05 04:30:44;;;;;;;6.90;2.78;;;;;;;21.10;46.96;101419.00;5034628;28;20051;-64
2022/10/05 04:33:14;;;;;;;7.30;2.80;;;;;;;21.14;46.58;101431.22;5017973;28;20032;-64
2022/10/05 04:36:17;;;;;;;4.93;3.10;;;;;;;21.16;46.87;101434.59;5035632;28;20025;-64
2022/10/05 04:38:51;;;;;;;5.57;2.77;;;;;;;21.16;46.25;101428.31;5035738;28;20032;-64
2022/10/05 04:41:41;;;;;;;5.88;3.55;;;;;;;21.14;46.99;101425.75;5034352;28;20482;-64
2022/10/05 04:44:54;;;;;;;6.82;2.80;;;;;;;21.13;47.28;101424.09;5035269;28;20037;-64
2022/10/05 04:47:49;;;;;;;5.43;2.97;;;;;;;21.11;47.15;101420.69;5027039;28;20249;-64
2022/10/05 04:50:21;;;;;;;8.27;2.80;;;;;;;21.10;47.02;101423.59;5034239;28;20494;-64
2022/10/05 04:52:57;;;;;;;6.10;2.78;;;;;;;21.09;46.28;101424.63;5035385;28;20036;-64
2022/10/05 04:55:44;;;;;;;8.30;3.25;;;;;;;21.09;46.87;101422.75;5033991;28;20475;-64
2022/10/05 04:58:18;;;;;;;6.18;3.22;;;;;;;21.11;47.47;101426.13;5035304;28;20025;-64
2022/10/05 05:00:52;;;;;;;3.85;2.88;;;;;;;21.09;46.67;101422.75;5035391;28;20422;-63
2022/10/05 05:03:33;;;;;;;6.55;2.53;;;;;;;21.13;47.38;101423.25;5035164;28;20025;-64
2022/10/05 05:06:13;;;;;;;6.43;3.33;;;;;;;21.14;47.23;101424.91;5033935;28;20029;-64
2022/10/05 05:09:23;;;;;;;9.32;3.70;;;;;;;21.15;46.74;101426.63;5033758;28;20021;-64
2022/10/05 05:12:18;;;;;;;6.82;2.55;;;;;;;21.15;46.54;101423.91;5013059;28;20041;-64
2022/10/05 05:15:00;;;;;;;5.75;3.05;;;;;;;21.16;47.32;101418.25;5033995;28;20387;-64
2022/10/05 05:17:32;;;;;;;4.03;2.70;;;;;;;21.17;46.83;101417.22;5034695;28;20095;-64
2022/10/05 05:20:14;;;;;;;4.00;2.55;;;;;;;21.17;46.68;101419.94;5030816;28;20589;-64
2022/10/05 05:23:03;;;;;;;4.82;3.05;;;;;;;21.16;46.97;101414.69;5013238;28;20552;-64
2022/10/05 05:25:37;;;;;;;4.07;2.15;;;;;;;21.15;47.48;101419.28;5032375;28;20364;-64
2022/10/05 05:28:43;;;;;;;5.47;2.70;;;;;;;21.18;46.84;101418.06;5031571;28;20105;-64
2022/10/05 05:31:14;;;;;;;5.00;3.00;;;;;;;21.15;46.70;101416.56;4976877;28;20034;-64
2022/10/05 05:34:09;;;;;;;4.03;2.45;;;;;;;21.19;46.58;101417.06;4993044;28;20145;-64
2022/10/05 05:36:41;;;;;;;6.07;2.70;;;;;;;21.20;46.78;101425.03;4968164;28;20081;-64
2022/10/05 05:39:15;;;;;;;;;;;;;;;21.24;46.79;101423.66;4993436;28;20504;-64
2022/10/05 05:41:49;;;;;;;3.75;2.30;;;;;;;21.29;46.93;101418.50;4976575;28;19960;-64
2022/10/05 05:44:25;;;;;;;3.70;2.80;;;;;;;21.28;46.87;101419.50;4992222;28;20053;-63
2022/10/05 05:46:55;;;;;;;3.95;2.40;;;;;;;21.29;46.41;101418.50;4976529;28;20038;-63
2022/10/05 05:52:04;;;;;;;5.82;2.65;;;;;;;21.34;46.89;101421.50;5055082;22;20477;-70
2022/10/05 05:54:35;;;;;;;3.40;2.30;;;;;;;21.35;46.92;101423.22;5033202;28;20022;-71
2022/10/05 05:57:18;;;;;;;7.53;2.47;;;;;;;21.39;47.33;101419.06;5032896;28;20433;-70
2022/10/05 06:00:04;;;;;;;5.88;2.53;;;;;;;21.40;47.09;101419.91;5049630;28;20497;-70
2022/10/05 06:02:38;;;;;;;4.65;2.50;;;;;;;21.40;47.22;101415.31;5034402;28;20481;-71
2022/10/05 06:10:26;;;;;;;6.10;2.28;;;;;;;21.47;46.51;101413.53;5909775;22;20044;-64
2022/10/05 06:12:53;;;;;;;4.05;2.67;;;;;;;21.48;46.70;101408.94;5054047;28;20046;-62
2022/10/05 06:15:34;;;;;;;5.75;2.53;;;;;;;21.50;46.84;101408.75;5054224;28;20074;-64
2022/10/05 06:18:03;;;;;;;3.42;2.90;;;;;;;21.53;46.35;101403.75;5053005;28;20021;-63
2022/10/05 06:20:47;;;;;;;4.05;2.45;;;;;;;21.56;47.36;101418.91;5047518;28;20022;-62
2022/10/05 06:23:17;;;;;;;8.05;2.90;;;;;;;21.54;46.79;101405.47;5070850;28;20024;-62
2022/10/05 06:25:52;;;;;;;4.15;2.42;;;;;;;21.58;47.30;101405.94;5053753;28;20112;-63
2022/10/05 06:28:18;;;;;;;4.15;2.53;;;;;;;21.59;46.65;101403.00;5070133;28;20021;-62
2022/10/05 06:31:16;;;;;;;4.45;2.30;;;;;;;21.66;46.48;101403.97;5070382;28;20085;-63
2022/10/05 06:33:50;;;;;;;4.45;2.92;;;;;;;21.66;47.18;101394.94;5071100;28;20021;-62
2022/10/05 06:36:39;;;;;;;5.07;2.83;;;;;;;21.72;47.20;101407.84;5054130;28;20032;-62
2022/10/05 06:39:20;;;;;;;8.48;2.72;;;;;;;21.77;47.40;101399.94;5070348;28;20013;-63
2022/10/05 06:42:13;;;;;;;5.15;3.25;;;;;;;21.77;46.88;101397.22;5070002;28;20036;-62
2022/10/05 06:44:44;;;;;;;7.53;2.25;;;;;;;21.77;46.71;101399.94;5072341;28;20027;-61
2022/10/05 06:47:40;;;;;;;8.05;2.42;;;;;;;21.77;46.95;101405.38;5061947;28;20437;-62
2022/10/05 06:50:40;;;;;;;9.18;2.58;;;;;;;21.79;47.08;101398.72;5053572;28;20108;-63
2022/10/05 06:53:18;;;;;;;8.07;2.33;;;;;;;21.85;47.07;101397.97;5067140;28;20036;-63
2022/10/05 06:56:06;;;;;;;4.95;2.05;;;;;;;21.92;46.77;101398.06;5073440;28;20056;-63
2022/10/05 06:58:53;;;;;;;5.15;2.40;;;;;;;22.00;47.04;101395.22;5056569;28;20028;-63
2022/10/05 07:01:36;;;;;;;3.15;2.15;;;;;;;22.08;46.60;101403.34;5055945;28;20036;-62
2022/10/05 07:04:18;;;;;;;3.55;2.20;;;;;;;22.12;46.84;101393.72;5055824;28;20032;-62
2022/10/05 07:07:27;;;;;;;4.97;2.13;;;;;;;22.18;46.69;101397.56;5073073;28;20021;-63
2022/10/05 07:10:03;;;;;;;4.18;2.53;;;;;;;22.20;46.66;101381.84;5072128;28;20032;-62
2022/10/05 07:12:45;;;;;;;7.47;2.25;;;;;;;22.26;46.17;101397.47;5073604;28;20074;-62
2022/10/05 07:15:24;;;;;;;5.53;2.17;;;;;;;22.29;46.84;101394.34;5073959;28;20020;-62
2022/10/05 07:18:31;;;;;;;3.97;2.22;;;;;;;22.32;46.68;101389.38;5055753;28;20025;-62
2022/10/05 07:21:05;;;;;;;4.72;1.92;;;;;;;22.33;46.20;101380.16;5072361;28;20020;-62
2022/10/05 07:23:36;;;;;;;5.82;2.30;;;;;;;22.34;45.86;101387.28;5073892;28;20031;-62
2022/10/05 07:26:13;;;;;;;2.65;1.65;;;;;;;22.33;46.56;101391.06;5073000;28;20086;-62
2022/10/05 07:28:39;;;;;;;3.22;2.55;;;;;;;22.35;46.83;101388.97;5073080;28;20063;-61
2022/10/05 07:31:24;;;;;;;6.28;2.00;;;;;;;22.38;46.66;101383.13;5072863;28;20029;-62
2022/10/05 07:34:08;;;;;;;7.80;3.40;;;;;;;22.40;46.61;101391.13;5071979;28;20089;-62
2022/10/05 07:39:44;;;;;;;2.75;2.05;;;;;;;22.46;45.93;101391.22;5073779;28;20064;-62
2022/10/05 07:42:58;;;;;;;5.78;2.53;;;;;;;22.49;46.44;101385.38;5073026;28;20024;-62
2022/10/05 07:45:30;;;;;;;5.70;2.53;;;;;;;22.57;45.67;101390.69;4977835;28;20034;-62
2022/10/05 07:47:58;;;;;;;6.95;2.10;;;;;;;22.61;45.74;101378.34;4976979;28;20532;-62
2022/10/05 07:50:41;;;;;;;4.18;2.33;;;;;;;22.72;46.15;101387.09;4977079;28;20021;-62
2022/10/05 07:53:17;;;;;;;3.65;1.92;;;;;;;22.83;46.25;101392.03;4977741;28;20091;-61
2022/10/05 07:55:50;;;;;;;2.92;2.10;;;;;;;22.90;45.12;101382.00;4961093;28;20058;-62
2022/10/05 07:58:28;;;;;;;3.28;2.53;;;;;;;22.97;45.65;101399.34;4993365;28;20027;-63
2022/10/05 08:01:11;;;;;;;5.55;2.20;;;;;;;23.03;45.81;101384.88;4976590;28;20077;-63
2022/10/05 08:03:47;;;;;;;3.50;1.83;;;;;;;23.15;45.48;101399.69;4977927;28;20038;-62
2022/10/05 08:06:26;;;;;;;4.82;2.35;;;;;;;23.22;46.05;101392.41;4963227;28;20054;-62
2022/10/05 08:09:14;;;;;;;4.65;2.08;;;;;;;23.29;44.92;101393.28;4994449;28;20030;-63
2022/10/05 08:11:55;;;;;;;6.18;2.75;;;;;;;23.36;45.20;101396.94;4945044;28;20051;-62
2022/10/05 08:14:49;;;;;;;2.80;2.05;;;;;;;23.43;45.52;101399.75;4994441;28;20054;-63
2022/10/05 08:18:00;;;;;;;4.03;2.72;;;;;;;23.47;45.46;101401.91;5064256;28;20087;-63
2022/10/05 08:20:28;;;;;;;2.75;1.73;;;;;;;23.48;45.27;101403.56;5074254;28;20021;-62
2022/10/05 08:23:00;;;;;;;2.95;1.80;;;;;;;23.56;45.72;101405.31;5075305;28;20048;-62
2022/10/05 08:25:36;;;;;;;2.20;1.80;;;;;;;23.62;45.72;101399.88;5074348;28;20025;-62
2022/10/05 08:28:07;;;;;;;5.28;2.53;;;;;;;23.66;45.66;101405.81;5074172;28;20096;-62
2022/10/05 08:30:38;;;;;;;7.55;2.22;;;;;;;23.65;45.08;101407.69;5057441;28;20051;-62
2022/10/05 08:33:05;;;;;;;3.97;1.73;;;;;;;23.68;45.63;101404.56;5057360;28;20020;-63
2022/10/05 08:35:39;;;;;;;2.50;1.67;;;;;;;23.71;44.79;101398.69;5073849;28;20049;-63
2022/10/05 08:38:16;;;;;;;3.05;1.85;;;;;;;23.74;45.68;101398.28;5073749;28;20009;-62
2022/10/05 08:40:47;;;;;;;3.28;1.85;;;;;;;23.81;45.21;101392.00;5057286;28;20021;-63
2022/10/05 08:43:18;;;;;;;2.05;1.80;;;;;;;23.89;44.41;101394.59;5074923;28;20055;-63
2022/10/05 08:46:00;;;;;;;3.25;1.70;;;;;;;23.96;45.05;101390.81;5074560;28;20214;-63
2022/10/05 08:48:32;;;;;;;4.63;1.65;;;;;;;24.00;45.08;101381.16;5073925;28;20021;-62
2022/10/05 08:51:01;;;;;;;;;;;;;;;24.04;45.01;101389.78;5074752;28;20048;-65
2022/10/05 08:53:38;;;;;;;2.13;1.38;;;;;;;24.08;44.54;101393.84;5074902;28;19915;-63
2022/10/05 08:56:09;;;;;;;2.53;1.33;;;;;;;24.12;44.84;101384.22;5074575;28;20040;-62
2022/10/05 08:58:59;;;;;;;2.15;1.30;;;;;;;24.18;44.17;101377.88;5073665;28;20033;-62
2022/10/05 09:01:43;;;;;;;3.63;1.50;;;;;;;24.15;44.18;101378.28;5074375;28;20021;-63
2022/10/05 09:04:29;;;;;;;5.53;2.05;;;;;;;24.15;44.14;101375.56;5073297;28;20025;-63
2022/10/05 09:07:10;;;;;;;3.97;1.50;;;;;;;24.18;44.40;101384.22;5073031;28;20067;-62
2022/10/05 09:09:40;;;;;;;2.72;1.67;;;;;;;24.22;44.97;101376.44;5074772;28;20031;-63
2022/10/05 09:12:21;;;;;;;4.50;2.15;;;;;;;24.28;44.82;101375.63;5073175;28;20037;-63
2022/10/05 09:15:09;;;;;;;4.45;1.20;;;;;;;24.35;44.84;101376.47;5072978;28;20031;-62
2022/10/05 09:18:06;;;;;;;3.53;1.40;;;;;;;24.42;44.46;101374.63;5074580;28;20037;-62
2022/10/05 09:20:54;;;;;;;2.90;1.48;;;;;;;24.50;44.34;101374.44;5056710;28;20021;-63
2022/10/05 09:23:38;;;;;;;3.83;1.63;;;;;;;24.57;44.42;101367.06;5056633;28;20021;-62
2022/10/05 09:26:42;;;;;;;1.90;1.08;;;;;;;24.64;44.15;101373.41;5056901;28;20031;-62
2022/10/05 09:29:13;;;;;;;;;;;;;;;24.72;43.58;101372.38;5056192;28;20021;-62
2022/10/05 09:31:54;;;;;;;3.72;1.10;;;;;;;24.73;43.38;101365.84;5055898;28;19909;-64
2022/10/05 09:34:31;;;;;;;2.80;1.35;;;;;;;24.76;44.29;101373.66;5055351;28;20017;-63
2022/10/05 09:37:21;;;;;;;2.05;1.38;;;;;;;24.82;43.54;101370.09;5055900;28;20033;-62
2022/10/05 09:39:56;;;;;;;2.40;1.48;;;;;;;24.85;43.78;101370.53;5073768;28;20051;-63
2022/10/05 09:42:43;;;;;;;5.15;1.95;;;;;;;24.88;43.12;101353.66;5055166;28;20123;-63
2022/10/05 09:45:30;;;;;;;2.30;1.40;;;;;;;24.88;43.47;101356.41;5073828;28;20032;-64
2022/10/05 09:48:36;;;;;;;3.75;1.27;;;;;;;24.89;43.57;101355.34;5055032;28;20036;-62
2022/10/05 09:51:35;;;;;;;2.70;1.17;;;;;;;24.92;43.68;101354.09;5039247;28;20088;-63
2022/10/05 09:54:24;;;;;;;5.40;1.50;;;;;;;24.98;43.41;101363.38;5055148;28;20037;-64
2022/10/05 09:57:13;;;;;;;2.35;1.10;;;;;;;25.00;43.78;101347.53;5073035;28;20034;-64
2022/10/05 10:00:21;;;;;;;2.47;1.08;;;;;;;25.10;43.41;101350.72;5055884;28;20036;-62
2022/10/05 10:03:04;;;;;;;1.52;1.10;;;;;;;25.23;42.96;101347.97;5026502;28;20032;-64
2022/10/05 10:05:32;;;;;;;4.22;1.45;;;;;;;25.41;43.35;101345.41;5054759;28;20029;-64
2022/10/05 10:08:19;;;;;;;2.17;1.20;;;;;;;25.72;42.36;101348.31;5072131;28;20024;-64
2022/10/05 10:10:59;;;;;;;2.20;1.30;;;;;;;26.01;42.07;101341.47;5072035;28;20063;-64
2022/10/05 10:13:52;;;;;;;4.53;1.20;;;;;;;26.45;42.13;101329.63;5072056;28;20021;-64
2022/10/05 10:16:29;;;;;;;6.78;1.30;;;;;;;27.00;40.85;101337.09;5072125;28;20048;-63
2022/10/05 10:19:32;;;;;;;5.78;1.50;;;;;;;27.37;41.27;101328.91;5054337;28;20097;-63
2022/10/05 10:22:25;;;;;;;4.18;1.30;;;;;;;27.85;40.80;101324.41;5053626;28;20062;-62
2022/10/05 10:25:06;;;;;;;2.20;0.93;;;;;;;28.26;39.44;101329.19;5070887;28;20024;-64
2022/10/05 10:27:52;;;;;;;6.43;1.40;;;;;;;28.69;39.46;101323.50;5052959;28;20029;-64
2022/10/05 10:30:37;;;;;;;1.70;1.08;;;;;;;28.88;39.11;101322.31;5053162;28;20025;-64
2022/10/05 10:33:23;;;;;;;2.85;0.90;;;;;;;29.15;39.17;101323.56;5052706;28;20040;-64
2022/10/05 10:36:07;;;;;;;3.88;1.00;;;;;;;28.99;38.94;101318.75;5071216;28;20024;-63
2022/10/05 10:39:18;;;;;;;0.88;0.88;;;;;;;29.58;38.87;101316.84;5053009;28;20032;-63
2022/10/05 10:42:15;;;;;;;3.45;1.63;;;;;;;30.23;37.91;101315.50;5045736;28;20044;-64
2022/10/05 10:44:59;;;;;;;2.95;1.20;;;;;;;30.66;37.42;101308.56;5013786;28;20037;-64
2022/10/05 10:47:47;;;;;;;1.42;0.77;;;;;;;31.35;36.62;101291.44;5071466;28;20079;-65
2022/10/05 10:50:32;;;;;;;7.72;1.27;;;;;;;31.88;36.20;101295.53;5053074;28;20036;-63
2022/10/05 10:53:19;;;;;;;1.48;1.20;;;;;;;32.42;35.09;101294.50;5071543;28;20036;-64
2022/10/05 10:56:03;;;;;;;1.65;0.80;;;;;;;32.26;35.56;101293.53;5071789;28;20025;-63
2022/10/05 10:58:50;;;;;;;3.45;1.20;;;;;;;32.91;35.86;101283.31;5072378;28;20037;-63
2022/10/05 11:01:15;;;;;;;2.25;1.05;;;;;;;33.63;34.73;101283.56;5055108;28;20101;-63
2022/10/05 11:03:54;;;;;;;0.95;0.73;;;;;;;33.74;34.80;101272.22;5054306;28;20025;-63
2022/10/05 11:06:32;;;;;;;1.73;0.88;;;;;;;33.97;33.60;101265.34;5054474;28;20044;-64
2022/10/05 11:09:04;;;;;;;1.13;0.73;;;;;;;34.30;33.67;101269.63;5055523;28;20036;-63
2022/10/05 11:11:41;;;;;;;0.83;0.83;;;;;;;34.01;33.92;101254.50;5054606;28;20049;-63
2022/10/05 11:14:34;;;;;;;1.38;0.52;;;;;;;34.49;33.89;101256.84;5072237;28;20039;-66
2022/10/05 11:17:20;;;;;;;2.83;0.90;;;;;;;34.75;33.24;101253.00;5054500;28;20032;-63
2022/10/05 11:20:03;;;;;;;1.67;0.88;;;;;;;34.49;33.71;101257.69;5072208;28;20037;-63
2022/10/05 11:22:44;;;;;;;1.40;0.93;;;;;;;34.15;32.92;101258.47;5054163;28;20084;-64
2022/10/05 11:25:29;;;;;;;0.88;0.60;;;;;;;34.48;32.50;101247.66;5072551;28;20029;-64
2022/10/05 11:28:12;;;;;;;1.52;0.60;;;;;;;34.40;32.76;101236.25;5072409;28;20025;-63
2022/10/05 11:30:56;;;;;;;1.52;0.60;;;;;;;33.79;33.85;101243.59;5054785;28;20039;-63
2022/10/05 11:33:27;;;;;;;2.78;0.73;;;;;;;34.39;33.26;101234.59;5054407;28;20048;-64
2022/10/05 11:36:27;;;;;;;2.38;0.80;;;;;;;34.72;32.99;101233.22;5054391;28;20024;-64
2022/10/05 11:39:29;;;;;;;2.25;0.75;;;;;;;34.76;32.94;101235.16;5075254;28;20024;-64
2022/10/05 11:42:25;;;;;;;2.47;0.70;;;;;;;34.46;32.87;101227.63;5042749;28;20031;-64
2022/10/05 11:45:14;;;;;;;3.42;0.57;;;;;;;34.76;31.89;101229.59;5058906;28;20029;-63
2022/10/05 11:47:48;;;;;;;2.63;0.82;;;;;;;35.05;31.67;101216.75;5059096;28;20029;-65
2022/10/05 11:50:19;;;;;;;0.70;0.70;;;;;;;35.10;31.87;101224.28;5076581;28;20029;-65
2022/10/05 11:53:01;;;;;;;1.92;0.73;;;;;;;35.08;31.56;101199.50;5057626;28;20021;-63
2022/10/05 11:55:34;;;;;;;1.02;0.60;;;;;;;35.32;31.20;101204.44;5058050;28;20492;-66
2022/10/05 11:58:21;;;;;;;1.13;0.70;;;;;;;35.40;31.48;101209.44;5057432;28;20025;-63
2022/10/05 12:01:09;;;;;;;0.70;0.68;;;;;;;35.46;31.38;101205.47;5057844;28;20021;-64
2022/10/05 12:04:12;;;;;;;1.13;0.60;;;;;;;35.40;31.82;101195.50;5058016;28;20016;-63
2022/10/05 12:07:02;;;;;;;1.25;0.90;;;;;;;35.32;30.93;101198.84;5059590;28;20089;-64
2022/10/05 12:10:16;;;;;;;1.75;0.85;;;;;;;35.34;31.03;101185.50;5075422;28;20032;-64
2022/10/05 12:13:00;;;;;;;4.72;0.73;;;;;;;35.32;31.14;101170.97;4999898;28;20052;-65
2022/10/05 12:15:47;;;;;;;0.98;0.50;;;;;;;35.33;30.71;101178.22;5057318;28;20469;-66
2022/10/05 12:18:21;;;;;;;0.50;0.50;;;;;;;35.24;31.02;101168.78;5057901;28;20512;-64
2022/10/05 12:21:01;;;;;;;3.05;0.75;;;;;;;35.15;30.77;101159.38;5041534;28;20025;-64
2022/10/05 12:23:29;;;;;;;0.55;0.55;;;;;;;35.17;31.48;101145.97;5057802;28;20525;-64
2022/10/05 12:26:11;;;;;;;1.83;0.60;;;;;;;35.04;30.82;101137.06;5057750;28;20025;-66
2022/10/05 12:28:41;;;;;;;9.30;0.60;;;;;;;34.98;31.13;101151.31;5075194;28;20035;-63
2022/10/05 12:31:13;;;;;;;0.52;0.50;;;;;;;34.87;30.43;101135.75;5057177;28;20025;-65
2022/10/05 12:33:50;;;;;;;1.15;0.80;;;;;;;34.73;30.95;101129.91;5056706;28;20047;-66
2022/10/05 12:36:33;;;;;;;1.85;0.93;;;;;;;34.64;30.69;101123.28;5074083;28;20056;-65
2022/10/05 12:39:08;;;;;;;0.80;0.57;;;;;;;34.67;31.64;101127.44;5056526;28;20025;-65
2022/10/05 12:41:40;;;;;;;2.95;0.77;;;;;;;34.64;31.47;101120.50;5056466;28;20085;-63